Time;durP1;ratioP1;P1;durP2;ratioP2;P2;SDS_P1;SDS_P2;PMS_P1;PMS_P2;Temp;Humidity;BMP_temperature;BMP_pressure;BME280_temperature;BME280_humidity;BME280_pressure;Samples;Min_cycle;Max_cycle;Signal;HPM_P1;HPM_P2
2022/05/13 00:01:04;;;;;;;1.00;0.50;;;12.90;99.90;;;;;;5032631;28;20136;-62
2022/05/13 00:03:31;;;;;;;1.13;0.50;;;12.90;99.90;;;;;;5036680;28;20054;-62
2022/05/13 00:05:58;;;;;;;1.13;0.50;;;13.00;99.90;;;;;;5040214;28;20128;-62
2022/05/13 00:08:25;;;;;;;0.90;0.47;;;12.90;99.90;;;;;;5024737;28;20357;-62
2022/05/13 00:10:52;;;;;;;1.35;0.55;;;13.00;99.90;;;;;;5027049;28;20045;-62
2022/05/13 00:13:19;;;;;;;1.50;0.77;;;12.90;99.90;;;;;;5039000;28;20361;-62
2022/05/13 00:15:46;;;;;;;2.53;0.68;;;12.90;99.90;;;;;;5041706;28;20045;-62
2022/05/13 00:18:13;;;;;;;1.20;0.50;;;12.90;99.90;;;;;;5033729;28;20049;-61
2022/05/13 00:20:40;;;;;;;1.52;0.70;;;12.90;99.90;;;;;;5040849;28;20132;-62
2022/05/13 00:23:07;;;;;;;1.02;0.50;;;12.80;99.90;;;;;;5035267;28;20087;-62
2022/05/13 00:25:35;;;;;;;1.52;0.63;;;12.80;99.90;;;;;;5041629;28;20124;-61
2022/05/13 00:28:03;;;;;;;0.98;0.50;;;12.80;99.90;;;;;;5042182;28;20098;-61
2022/05/13 00:30:32;;;;;;;2.25;0.85;;;12.80;99.90;;;;;;5030636;28;20045;-62
2022/05/13 00:32:59;;;;;;;1.38;0.60;;;12.80;99.90;;;;;;5028254;28;20465;-62
2022/05/13 00:35:25;;;;;;;1.33;0.80;;;12.70;99.90;;;;;;5041333;28;20053;-61
2022/05/13 00:37:52;;;;;;;0.75;0.40;;;12.70;99.90;;;;;;5042974;28;20185;-62
2022/05/13 00:40:20;;;;;;;2.42;0.82;;;12.70;99.90;;;;;;5041469;28;20077;-61
2022/05/13 00:42:47;;;;;;;1.65;0.80;;;12.60;99.90;;;;;;5025272;28;20127;-62
2022/05/13 00:45:14;;;;;;;1.02;0.55;;;12.60;99.90;;;;;;5022527;28;20460;-61
2022/05/13 00:47:44;;;;;;;1.27;0.50;;;12.60;99.90;;;;;;5042162;28;20055;-62
2022/05/13 00:50:12;;;;;;;1.60;0.52;;;12.50;99.90;;;;;;5042045;28;20049;-61
2022/05/13 00:52:45;;;;;;;1.45;0.50;;;12.50;99.90;;;;;;5011333;28;20646;-62
2022/05/13 00:55:15;;;;;;;1.80;1.17;;;12.40;99.90;;;;;;5023355;28;20053;-62
2022/05/13 00:57:42;;;;;;;1.88;0.68;;;12.40;99.90;;;;;;5024112;28;20179;-60
2022/05/13 01:00:11;;;;;;;1.77;0.70;;;12.30;99.90;;;;;;5024584;28;20081;-62
2022/05/13 01:02:43;;;;;;;2.83;1.23;;;12.30;99.90;;;;;;5034190;28;20061;-62
2022/05/13 01:05:11;;;;;;;0.77;0.50;;;12.20;99.90;;;;;;5037692;28;20177;-61
2022/05/13 01:07:38;;;;;;;2.00;0.73;;;12.20;99.90;;;;;;5026291;28;20102;-61
2022/05/13 01:10:06;;;;;;;0.80;0.40;;;12.20;99.90;;;;;;5016743;28;20136;-61
2022/05/13 01:12:37;;;;;;;0.60;0.30;;;12.10;99.90;;;;;;5020823;28;20049;-62
2022/05/13 01:15:09;;;;;;;1.38;0.55;;;12.10;99.90;;;;;;5010636;28;20084;-61
2022/05/13 01:20:27;;;;;;;1.70;0.70;;;12.10;99.90;;;;;;5035193;28;20098;-61
2022/05/13 01:22:56;;;;;;;1.13;0.47;;;12.00;99.90;;;;;;5041510;28;20068;-62
2022/05/13 01:25:24;;;;;;;0.88;0.60;;;12.00;99.90;;;;;;5024243;28;20077;-61
2022/05/13 01:27:52;;;;;;;1.63;0.55;;;12.00;99.90;;;;;;5026950;28;20561;-62
2022/05/13 01:30:27;;;;;;;1.42;0.88;;;11.90;99.90;;;;;;5033965;28;20107;-61
2022/05/13 01:32:54;;;;;;;2.50;0.82;;;11.90;99.90;;;;;;5042033;28;20124;-61
2022/05/13 01:35:21;;;;;;;1.33;0.47;;;11.90;99.90;;;;;;5027194;28;20045;-61
2022/05/13 01:37:49;;;;;;;0.95;0.40;;;11.90;99.90;;;;;;5028168;28;20061;-61
2022/05/13 01:40:16;;;;;;;1.15;0.63;;;11.80;99.90;;;;;;5032855;28;20129;-63
2022/05/13 01:42:43;;;;;;;1.27;0.60;;;11.80;99.90;;;;;;5026783;28;20512;-61
2022/05/13 01:45:10;;;;;;;1.23;0.60;;;11.80;99.90;;;;;;5035543;28;20455;-62
2022/05/13 01:47:37;;;;;;;0.88;0.50;;;11.70;99.90;;;;;;5046300;28;20103;-61
2022/05/13 01:50:05;;;;;;;1.40;0.52;;;11.70;99.90;;;;;;5018158;28;20124;-61
2022/05/13 01:52:32;;;;;;;0.63;0.50;;;11.70;99.90;;;;;;5025470;28;20388;-61
2022/05/13 01:54:59;;;;;;;1.30;0.50;;;11.70;99.90;;;;;;5047208;28;20060;-62
2022/05/13 01:57:26;;;;;;;1.77;0.40;;;11.70;99.90;;;;;;5047080;28;20048;-62
2022/05/13 01:59:53;;;;;;;1.40;0.70;;;11.70;99.90;;;;;;5037815;28;20740;-62
2022/05/13 02:02:20;;;;;;;1.70;0.50;;;11.70;99.90;;;;;;5041478;28;20144;-62
2022/05/13 02:04:48;;;;;;;0.52;0.30;;;11.60;99.90;;;;;;5046381;28;20037;-61
2022/05/13 02:07:14;;;;;;;1.42;0.50;;;11.60;99.90;;;;;;5047362;28;20211;-63
2022/05/13 02:09:42;;;;;;;2.13;0.45;;;11.60;99.90;;;;;;5039896;28;20081;-61
2022/05/13 02:12:09;;;;;;;1.60;0.50;;;11.60;99.90;;;;;;5038886;28;20522;-62
2022/05/13 02:14:36;;;;;;;0.52;0.45;;;11.60;99.90;;;;;;5046434;28;20095;-62
2022/05/13 02:17:03;;;;;;;0.22;0.22;;;11.50;99.90;;;;;;5024799;28;20124;-61
2022/05/13 02:19:30;;;;;;;0.80;0.50;;;11.50;99.90;;;;;;5026703;28;20052;-61
2022/05/13 02:21:57;;;;;;;1.40;0.50;;;11.50;99.90;;;;;;5019935;28;20198;-61
2022/05/13 02:24:23;;;;;;;0.88;0.50;;;11.50;99.90;;;;;;5041290;28;20052;-61
2022/05/13 02:26:50;;;;;;;0.75;0.40;;;11.50;99.90;;;;;;5028010;28;20402;-61
2022/05/13 02:29:17;;;;;;;1.05;0.43;;;11.40;99.90;;;;;;5046501;28;20045;-61
2022/05/13 02:31:44;;;;;;;1.20;0.60;;;11.40;99.90;;;;;;5046991;28;20132;-61
2022/05/13 02:34:11;;;;;;;1.33;0.68;;;11.40;99.90;;;;;;5030139;28;20106;-62
2022/05/13 02:36:37;;;;;;;2.55;0.50;;;11.40;99.90;;;;;;5029824;28;20528;-61
2022/05/13 02:39:04;;;;;;;1.23;0.60;;;11.40;99.90;;;;;;5010369;28;20085;-61
2022/05/13 02:41:31;;;;;;;1.52;0.60;;;11.30;99.90;;;;;;5015327;28;20506;-62
2022/05/13 02:43:58;;;;;;;1.27;0.47;;;11.30;99.90;;;;;;5039287;28;20053;-61
2022/05/13 02:46:32;;;;;;;1.48;0.55;;;11.30;99.90;;;;;;5028188;28;20061;-61
2022/05/13 02:48:59;;;;;;;2.55;0.70;;;11.20;99.90;;;;;;5042720;28;20064;-61
2022/05/13 02:51:26;;;;;;;1.42;0.70;;;11.30;99.90;;;;;;5046461;28;20539;-61
2022/05/13 02:53:53;;;;;;;1.05;0.52;;;11.20;99.90;;;;;;5045406;28;20052;-61
2022/05/13 02:56:20;;;;;;;1.05;0.57;;;11.20;99.90;;;;;;5046903;28;20503;-61
2022/05/13 02:58:47;;;;;;;0.77;0.40;;;11.20;99.90;;;;;;5033322;28;20064;-61
2022/05/13 03:01:15;;;;;;;2.50;0.38;;;11.20;99.90;;;;;;5027499;28;20115;-61
2022/05/13 03:03:43;;;;;;;1.98;0.50;;;11.20;99.90;;;;;;5029919;28;20436;-61
2022/05/13 03:06:10;;;;;;;1.30;0.50;;;11.20;99.90;;;;;;5009290;28;20141;-62
2022/05/13 03:08:37;;;;;;;0.73;0.40;;;11.20;99.90;;;;;;5036455;28;20124;-61
2022/05/13 03:11:04;;;;;;;1.27;0.57;;;11.20;99.90;;;;;;5042260;28;20148;-61
2022/05/13 03:13:31;;;;;;;2.95;0.80;;;11.10;99.90;;;;;;5045411;28;20771;-61
2022/05/13 03:16:02;;;;;;;0.85;0.47;;;11.10;99.90;;;;;;5027836;28;20053;-61
2022/05/13 03:18:29;;;;;;;1.25;0.50;;;11.10;99.90;;;;;;5025797;28;20119;-61
2022/05/13 03:20:56;;;;;;;1.15;0.57;;;11.10;99.90;;;;;;5008881;28;20046;-61
2022/05/13 03:23:23;;;;;;;1.70;0.50;;;11.10;99.90;;;;;;5044285;28;20436;-61
2022/05/13 03:25:49;;;;;;;1.10;0.57;;;11.00;99.90;;;;;;5040046;28;20460;-60
2022/05/13 03:28:16;;;;;;;1.10;0.50;;;11.00;99.90;;;;;;5045044;28;20500;-61
2022/05/13 03:30:44;;;;;;;0.90;0.30;;;11.00;99.90;;;;;;5044537;28;20128;-61
2022/05/13 03:33:11;;;;;;;1.65;0.40;;;11.00;99.90;;;;;;5018109;28;20061;-61
2022/05/13 03:35:39;;;;;;;0.52;0.43;;;11.00;99.90;;;;;;5032715;28;20045;-61
2022/05/13 03:38:06;;;;;;;0.57;0.30;;;11.00;99.90;;;;;;5039067;28;20044;-60
2022/05/13 03:40:33;;;;;;;1.42;0.43;;;10.90;99.90;;;;;;5033388;28;20440;-61
2022/05/13 03:43:00;;;;;;;0.60;0.47;;;10.90;99.90;;;;;;5018636;28;20512;-61
2022/05/13 03:45:27;;;;;;;1.08;0.35;;;10.90;99.90;;;;;;5030249;28;20056;-63
2022/05/13 03:47:53;;;;;;;1.70;0.82;;;10.90;99.90;;;;;;5034699;28;20535;-62
2022/05/13 03:50:21;;;;;;;1.05;0.50;;;10.90;99.90;;;;;;5038317;28;20132;-62
2022/05/13 03:52:47;;;;;;;2.47;0.57;;;10.90;99.90;;;;;;5036853;28;20458;-63
2022/05/13 03:55:14;;;;;;;0.80;0.43;;;10.90;99.90;;;;;;5040614;28;20098;-62
2022/05/13 03:57:41;;;;;;;2.47;0.65;;;10.80;99.90;;;;;;5005141;28;20152;-63
2022/05/13 04:00:09;;;;;;;1.88;0.60;;;10.80;99.90;;;;;;5034536;28;20136;-62
2022/05/13 04:02:37;;;;;;;1.35;0.80;;;10.80;99.90;;;;;;5035611;28;20049;-61
2022/05/13 04:10:46;;;;;;;1.55;0.60;;;10.80;99.90;;;;;;5042214;28;20618;-62
2022/05/13 04:16:04;;;;;;;1.38;0.80;;;10.80;99.90;;;;;;5029065;28;20073;-62
2022/05/13 04:18:53;;;;;;;1.25;0.50;;;10.80;99.90;;;;;;5038042;28;20049;-62
2022/05/13 04:21:21;;;;;;;1.45;0.70;;;10.80;99.90;;;;;;5036712;28;20055;-62
2022/05/13 04:23:49;;;;;;;0.88;0.40;;;10.80;99.90;;;;;;5037748;28;20142;-62
2022/05/13 04:26:16;;;;;;;0.73;0.50;;;10.80;99.90;;;;;;5040236;28;20124;-62
2022/05/13 04:28:44;;;;;;;0.95;0.60;;;10.80;99.90;;;;;;5042429;28;20095;-61
2022/05/13 04:31:11;;;;;;;1.00;0.60;;;10.80;99.90;;;;;;5043941;28;20735;-62
2022/05/13 04:33:38;;;;;;;2.47;0.70;;;10.90;99.90;;;;;;5036477;28;20049;-63
2022/05/13 04:36:05;;;;;;;1.08;0.60;;;10.90;99.90;;;;;;5025941;28;20049;-63
2022/05/13 04:38:33;;;;;;;1.48;0.57;;;10.90;99.90;;;;;;5026746;28;20588;-62
2022/05/13 04:43:49;;;;;;;1.52;0.75;;;11.00;99.90;;;;;;4990888;28;20460;-62
2022/05/13 04:46:17;;;;;;;1.25;0.65;;;11.00;99.90;;;;;;5026941;28;20216;-62
2022/05/13 04:48:46;;;;;;;0.80;0.65;;;11.10;99.90;;;;;;5009716;28;20049;-63
2022/05/13 04:51:13;;;;;;;1.65;0.77;;;11.10;99.90;;;;;;5024318;28;20049;-63
2022/05/13 04:53:40;;;;;;;2.05;0.60;;;11.20;99.90;;;;;;5036256;28;20091;-62
2022/05/13 04:56:07;;;;;;;1.63;0.77;;;11.20;99.90;;;;;;5043947;28;20091;-63
2022/05/13 04:58:34;;;;;;;2.33;0.82;;;11.20;99.90;;;;;;5043151;28;20502;-63
2022/05/13 05:01:04;;;;;;;1.52;0.65;;;11.30;99.90;;;;;;5043517;28;20135;-62
2022/05/13 05:03:31;;;;;;;4.25;0.80;;;11.30;99.90;;;;;;5038663;28;20107;-62
2022/05/13 05:05:58;;;;;;;2.60;0.70;;;11.40;99.90;;;;;;5041944;28;20548;-63
2022/05/13 05:08:25;;;;;;;1.73;0.70;;;11.40;99.90;;;;;;5042880;28;20095;-62
2022/05/13 05:10:51;;;;;;;1.73;0.50;;;11.50;99.90;;;;;;5044938;28;20208;-63
2022/05/13 05:13:22;;;;;;;1.73;0.88;;;11.50;99.90;;;;;;5041996;28;20123;-63
2022/05/13 05:15:49;;;;;;;1.83;0.88;;;11.50;99.90;;;;;;5024283;28;20089;-63
2022/05/13 05:18:16;;;;;;;0.47;0.35;;;11.60;99.90;;;;;;5024391;28;20468;-63
2022/05/13 05:20:43;;;;;;;3.35;0.80;;;11.70;99.90;;;;;;5023295;28;20585;-63
2022/05/13 05:23:15;;;;;;;2.22;0.95;;;11.70;99.90;;;;;;5033732;28;20555;-62
2022/05/13 05:25:43;;;;;;;4.15;1.10;;;11.70;99.90;;;;;;5022732;28;20095;-63
2022/05/13 05:28:09;;;;;;;3.17;1.35;;;11.80;99.90;;;;;;5010025;28;20132;-63
2022/05/13 05:30:37;;;;;;;2.90;0.98;;;11.90;99.90;;;;;;5044903;28;20453;-63
2022/05/13 05:33:03;;;;;;;2.85;0.73;;;11.90;99.90;;;;;;5045029;28;20085;-63
2022/05/13 05:35:30;;;;;;;2.15;0.82;;;12.00;99.90;;;;;;5043917;28;20135;-63
2022/05/13 05:37:57;;;;;;;3.35;0.85;;;12.00;99.90;;;;;;5041617;28;20139;-63
2022/05/13 05:40:24;;;;;;;2.25;1.05;;;12.10;99.90;;;;;;5041846;28;20095;-62
2022/05/13 05:42:50;;;;;;;2.38;0.98;;;12.20;99.90;;;;;;5041963;28;20053;-63
2022/05/13 05:45:18;;;;;;;3.05;1.00;;;12.30;99.90;;;;;;5044868;28;20465;-62
2022/05/13 05:47:45;;;;;;;2.95;1.20;;;12.30;99.90;;;;;;5041566;28;20075;-63
2022/05/13 05:50:14;;;;;;;2.05;0.90;;;12.30;99.90;;;;;;5040958;28;20052;-63
2022/05/13 05:52:41;;;;;;;3.45;1.00;;;12.40;99.90;;;;;;5044963;28;20476;-62
2022/05/13 05:58:01;;;;;;;3.67;1.25;;;12.50;99.90;;;;;;5041413;28;20537;-62
2022/05/13 06:00:29;;;;;;;3.75;1.20;;;12.60;99.90;;;;;;5041278;28;20084;-62
2022/05/13 06:02:56;;;;;;;3.20;1.10;;;12.70;99.90;;;;;;5044003;28;20128;-63
2022/05/13 06:05:26;;;;;;;2.78;1.00;;;12.80;99.90;;;;;;5043990;28;20048;-63
2022/05/13 06:07:53;;;;;;;3.05;1.20;;;12.90;99.90;;;;;;5044562;28;20079;-63
2022/05/13 06:10:20;;;;;;;3.60;1.48;;;13.00;99.90;;;;;;5044948;28;20072;-62
2022/05/13 06:12:47;;;;;;;4.18;1.35;;;13.00;99.90;;;;;;5044580;28;20053;-63
2022/05/13 06:15:14;;;;;;;2.65;1.20;;;13.00;99.90;;;;;;5046461;28;20606;-62
2022/05/13 06:17:45;;;;;;;3.80;1.23;;;13.00;99.90;;;;;;5048545;28;20091;-63
2022/05/13 06:20:12;;;;;;;1.92;1.00;;;13.10;99.90;;;;;;5048050;28;20132;-63
2022/05/13 06:22:40;;;;;;;2.95;1.10;;;13.10;99.90;;;;;;5048062;28;20045;-63
2022/05/13 06:25:12;;;;;;;3.28;1.58;;;13.10;99.90;;;;;;5045237;28;20140;-63
2022/05/13 06:27:38;;;;;;;3.08;1.00;;;13.10;99.90;;;;;;5044767;28;20540;-63
2022/05/13 06:30:07;;;;;;;3.55;1.10;;;13.10;99.90;;;;;;5045925;28;20140;-62
2022/05/13 06:32:34;;;;;;;2.92;1.20;;;13.20;99.90;;;;;;5047836;28;20049;-63
2022/05/13 06:35:01;;;;;;;2.20;0.95;;;13.20;99.90;;;;;;5047844;28;20109;-63
2022/05/13 06:37:28;;;;;;;3.90;1.60;;;13.20;99.90;;;;;;5045562;28;20484;-61
2022/05/13 06:39:55;;;;;;;3.67;1.33;;;13.20;99.90;;;;;;5044328;28;20045;-61
2022/05/13 06:42:21;;;;;;;2.72;1.10;;;13.20;99.90;;;;;;5026507;28;20053;-61
2022/05/13 06:44:48;;;;;;;4.63;1.30;;;13.20;99.90;;;;;;5027083;28;20056;-61
2022/05/13 06:47:15;;;;;;;4.65;1.20;;;13.30;99.90;;;;;;5045225;28;20606;-61
2022/05/13 06:49:42;;;;;;;3.67;2.00;;;13.40;99.90;;;;;;5047047;28;20128;-60
2022/05/13 06:52:13;;;;;;;2.38;1.15;;;13.50;99.90;;;;;;5045895;28;20084;-61
2022/05/13 06:54:59;;;;;;;3.05;1.13;;;13.50;99.90;;;;;;5044417;28;20045;-61
2022/05/13 06:57:25;;;;;;;2.85;1.30;;;13.60;99.90;;;;;;5043983;28;20051;-61
2022/05/13 06:59:52;;;;;;;3.28;1.20;;;13.70;99.90;;;;;;5044085;28;20469;-61
2022/05/13 07:02:19;;;;;;;3.05;1.48;;;13.70;99.90;;;;;;5043740;28;20211;-61
2022/05/13 07:04:46;;;;;;;4.25;1.40;;;13.70;99.90;;;;;;5043066;28;20147;-61
2022/05/13 07:07:13;;;;;;;3.65;1.63;;;13.80;99.90;;;;;;5043242;28;20105;-62
2022/05/13 07:09:40;;;;;;;2.92;1.17;;;13.80;99.90;;;;;;5044470;28;20411;-62
2022/05/13 07:12:08;;;;;;;4.25;1.80;;;13.90;99.90;;;;;;5046813;28;20136;-62
2022/05/13 07:14:35;;;;;;;4.97;1.60;;;14.00;99.90;;;;;;5047468;28;20139;-62
2022/05/13 07:17:03;;;;;;;3.85;1.40;;;14.00;99.90;;;;;;5047811;28;20132;-62
2022/05/13 07:19:30;;;;;;;4.07;1.65;;;14.20;99.90;;;;;;5045905;28;20134;-61
2022/05/13 07:21:57;;;;;;;3.63;1.50;;;14.30;99.90;;;;;;5046812;28;20041;-62
2022/05/13 07:24:24;;;;;;;5.43;1.50;;;14.30;99.90;;;;;;5046821;28;20067;-62
2022/05/13 07:26:51;;;;;;;4.47;1.92;;;14.30;99.90;;;;;;5046381;28;20049;-62
2022/05/13 07:29:17;;;;;;;4.85;1.80;;;14.30;99.90;;;;;;5046969;28;20091;-62
2022/05/13 07:31:44;;;;;;;5.60;2.08;;;14.30;99.90;;;;;;5047053;28;20492;-62
2022/05/13 07:34:11;;;;;;;4.65;1.95;;;14.20;99.90;;;;;;5045811;28;20080;-62
2022/05/13 07:36:38;;;;;;;3.42;1.73;;;14.20;99.90;;;;;;5045318;28;20099;-62
2022/05/13 07:41:50;;;;;;;4.00;1.35;;;14.30;99.90;;;;;;5047255;28;20110;-61
2022/05/13 07:44:17;;;;;;;4.65;1.90;;;14.30;99.90;;;;;;5046489;28;20091;-62
2022/05/13 07:46:44;;;;;;;4.20;1.45;;;14.20;99.90;;;;;;5046896;28;20156;-62
2022/05/13 07:49:11;;;;;;;3.78;1.63;;;14.20;99.90;;;;;;5045492;28;20227;-62
2022/05/13 07:51:37;;;;;;;2.03;0.90;;;14.20;99.90;;;;;;5028904;28;20131;-62
2022/05/13 07:54:04;;;;;;;3.10;1.30;;;14.30;99.90;;;;;;5046232;28;20045;-62
2022/05/13 07:56:31;;;;;;;2.53;1.25;;;14.40;99.90;;;;;;5046926;28;20120;-61
2022/05/13 07:59:00;;;;;;;2.85;1.25;;;14.60;99.90;;;;;;5045436;28;20080;-62
2022/05/13 08:01:27;;;;;;;2.58;1.15;;;14.70;99.90;;;;;;5028719;28;20140;-62
2022/05/13 08:03:56;;;;;;;4.00;1.40;;;14.90;99.90;;;;;;5045055;28;20103;-61
2022/05/13 08:06:23;;;;;;;3.65;1.40;;;15.00;99.90;;;;;;5045969;28;20152;-61
2022/05/13 08:08:55;;;;;;;4.28;1.80;;;15.20;99.90;;;;;;5046156;28;20136;-60
2022/05/13 08:11:23;;;;;;;;;;;15.30;99.90;;;;;;5046704;28;20464;-62
2022/05/13 08:13:50;;;;;;;1.92;1.15;;;15.30;99.90;;;;;;5045604;28;19971;-61
2022/05/13 08:16:19;;;;;;;2.13;1.48;;;15.30;99.90;;;;;;5046128;28;20693;-62
2022/05/13 08:18:46;;;;;;;2.45;1.10;;;15.40;99.90;;;;;;5044463;28;20183;-61
2022/05/13 08:21:12;;;;;;;1.38;0.77;;;15.40;99.90;;;;;;5046093;28;20049;-62
2022/05/13 08:23:40;;;;;;;4.05;1.48;;;15.40;99.90;;;;;;5043748;28;20063;-59
2022/05/13 08:26:08;;;;;;;2.63;1.20;;;15.30;99.90;;;;;;5043224;28;20132;-62
2022/05/13 08:28:35;;;;;;;2.33;1.33;;;15.20;99.90;;;;;;5042404;28;20191;-62
2022/05/13 08:31:02;;;;;;;2.33;0.90;;;15.10;99.90;;;;;;5042433;28;20088;-61
2022/05/13 08:33:29;;;;;;;3.00;1.35;;;15.00;99.90;;;;;;5044576;28;20136;-61
2022/05/13 08:35:57;;;;;;;2.70;1.35;;;15.00;99.90;;;;;;5045176;28;20041;-62
2022/05/13 08:38:27;;;;;;;3.42;1.30;;;15.00;99.90;;;;;;5045876;28;20135;-60
2022/05/13 08:41:09;;;;;;;2.40;1.17;;;15.00;99.90;;;;;;5045522;28;20131;-61
2022/05/13 08:43:46;;;;;;;3.45;1.10;;;14.90;99.90;;;;;;5044896;28;20053;-62
2022/05/13 08:46:16;;;;;;;3.03;1.10;;;15.00;99.90;;;;;;5027588;28;20132;-61
2022/05/13 08:49:05;;;;;;;2.53;1.02;;;14.90;99.90;;;;;;5044012;28;20044;-62
2022/05/13 08:51:54;;;;;;;2.67;1.00;;;14.80;99.90;;;;;;5045839;28;20503;-61
2022/05/13 08:54:23;;;;;;;4.25;1.25;;;14.70;99.90;;;;;;5044943;28;20591;-60
2022/05/13 08:56:51;;;;;;;5.28;1.40;;;14.50;99.90;;;;;;5027559;28;20555;-62
2022/05/13 08:59:23;;;;;;;3.25;1.30;;;14.40;99.90;;;;;;5027215;28;20128;-62
2022/05/13 09:02:18;;;;;;;3.10;1.27;;;14.40;99.90;;;;;;5045446;28;20132;-62
2022/05/13 09:04:59;;;;;;;3.40;1.35;;;14.40;99.90;;;;;;5025997;28;20053;-63
2022/05/13 09:07:26;;;;;;;6.40;1.58;;;14.50;99.90;;;;;;5027355;28;20048;-61
2022/05/13 09:09:55;;;;;;;3.05;1.20;;;14.60;99.90;;;;;;5027143;28;20045;-61
2022/05/13 09:12:43;;;;;;;2.58;1.00;;;14.70;99.90;;;;;;5027725;28;20073;-61
2022/05/13 09:15:22;;;;;;;2.70;1.30;;;14.80;99.90;;;;;;5027014;28;20052;-61
2022/05/13 09:18:05;;;;;;;3.50;1.40;;;15.00;99.90;;;;;;5016250;28;20049;-62
2022/05/13 09:20:58;;;;;;;1.75;0.82;;;15.20;99.90;;;;;;5030880;28;20460;-62
2022/05/13 09:23:25;;;;;;;2.10;0.98;;;15.50;99.90;;;;;;5036628;28;20041;-62
2022/05/13 09:26:15;;;;;;;2.15;1.10;;;15.70;99.90;;;;;;5042094;28;20053;-62
2022/05/13 09:29:05;;;;;;;2.95;1.60;;;16.10;99.90;;;;;;5040113;28;20136;-62
2022/05/13 09:31:33;;;;;;;3.17;1.35;;;16.10;99.90;;;;;;5040457;28;20132;-62
2022/05/13 09:34:14;;;;;;;4.07;1.33;;;16.00;99.90;;;;;;5021860;28;20107;-61
2022/05/13 09:36:41;;;;;;;2.25;0.90;;;15.90;99.90;;;;;;5023270;28;20132;-61
2022/05/13 09:39:18;;;;;;;4.68;1.23;;;15.80;99.90;;;;;;5042903;28;20140;-62
2022/05/13 09:41:45;;;;;;;2.78;1.40;;;15.80;99.90;;;;;;5023390;28;20653;-62
2022/05/13 09:44:22;;;;;;;4.13;1.50;;;15.80;99.90;;;;;;5023321;28;20077;-62
2022/05/13 09:46:50;;;;;;;2.83;1.30;;;15.80;99.90;;;;;;5045485;28;20084;-62
2022/05/13 09:49:36;;;;;;;2.83;1.15;;;15.80;99.90;;;;;;5026257;28;20077;-63
2022/05/13 09:52:10;;;;;;;3.15;1.05;;;15.90;99.90;;;;;;5030390;28;20452;-63
2022/05/13 09:54:39;;;;;;;2.22;1.23;;;16.00;99.90;;;;;;5027713;28;20128;-62
2022/05/13 09:57:08;;;;;;;2.72;1.23;;;16.20;99.90;;;;;;5029190;28;20138;-63
2022/05/13 09:59:43;;;;;;;2.40;1.15;;;16.40;99.90;;;;;;5047999;28;20056;-62
2022/05/13 10:02:28;;;;;;;2.88;1.30;;;16.60;99.90;;;;;;5031305;28;20488;-63
2022/05/13 10:05:14;;;;;;;2.10;0.90;;;16.60;99.90;;;;;;5048066;28;20048;-62
2022/05/13 10:07:50;;;;;;;2.78;1.17;;;17.00;99.90;;;;;;5048782;28;20135;-62
2022/05/13 10:15:58;;;;;;;3.80;1.50;;;17.00;99.90;;;;;;5033782;28;20106;-63
2022/05/13 10:18:29;;;;;;;2.58;1.20;;;17.00;99.90;;;;;;5031040;28;20047;-63
2022/05/13 10:21:06;;;;;;;3.13;1.00;;;17.10;99.90;;;;;;5046789;28;20148;-61
2022/05/13 10:23:39;;;;;;;4.93;1.50;;;17.20;99.90;;;;;;5045072;28;20529;-62
2022/05/13 10:26:10;;;;;;;4.35;1.58;;;17.20;99.90;;;;;;5045655;28;20053;-63
2022/05/13 10:28:57;;;;;;;4.85;1.40;;;17.10;99.90;;;;;;5027535;28;20060;-61
2022/05/13 10:31:25;;;;;;;4.38;1.30;;;17.20;99.90;;;;;;5032308;28;20059;-62
2022/05/13 10:34:30;;;;;;;3.88;1.48;;;17.40;99.90;;;;;;5029595;28;20049;-62
2022/05/13 10:37:17;;;;;;;2.85;1.35;;;17.60;99.90;;;;;;5030753;28;20334;-62
2022/05/13 10:39:49;;;;;;;2.47;0.90;;;17.90;99.90;;;;;;5032404;28;20072;-62
2022/05/13 10:42:21;;;;;;;1.98;1.40;;;17.90;99.90;;;;;;5030345;28;20686;-62
2022/05/13 10:44:58;;;;;;;4.10;1.45;;;17.90;99.90;;;;;;5027524;28;20049;-62
2022/05/13 10:47:33;;;;;;;3.45;1.60;;;17.90;99.90;;;;;;5044934;28;20139;-62
2022/05/13 10:50:00;;;;;;;3.78;1.50;;;17.90;99.90;;;;;;5028035;28;20053;-61
2022/05/13 10:52:50;;;;;;;2.47;1.30;;;17.80;99.90;;;;;;5047773;28;20083;-62
2022/05/13 10:55:33;;;;;;;4.28;1.70;;;17.90;99.90;;;;;;5030853;28;20076;-62
2022/05/13 10:58:06;;;;;;;3.05;1.20;;;17.90;99.90;;;;;;5029218;28;20128;-62
2022/05/13 11:00:32;;;;;;;3.95;1.48;;;18.00;99.90;;;;;;5043370;28;20077;-61
2022/05/13 11:03:07;;;;;;;3.80;1.40;;;18.10;99.90;;;;;;5042559;28;20049;-63
2022/05/13 11:06:03;;;;;;;2.88;1.35;;;18.20;99.90;;;;;;5043199;28;20049;-62
2022/05/13 11:08:41;;;;;;;3.78;1.63;;;18.30;99.90;;;;;;5026271;28;20145;-62
2022/05/13 11:11:23;;;;;;;3.92;1.58;;;18.20;99.90;;;;;;5043898;28;20085;-62
2022/05/13 11:14:02;;;;;;;2.72;1.10;;;18.10;99.90;;;;;;5044102;28;20091;-62
2022/05/13 11:16:53;;;;;;;2.75;1.42;;;18.30;99.90;;;;;;5044184;28;20646;-62
2022/05/13 11:19:38;;;;;;;3.67;1.08;;;18.40;99.90;;;;;;5042866;28;20075;-62
2022/05/13 11:22:11;;;;;;;3.20;1.30;;;18.70;99.90;;;;;;5025754;28;20049;-62
2022/05/13 11:27:45;;;;;;;4.35;1.50;;;18.90;99.90;;;;;;5029064;28;20148;-62
2022/05/13 11:30:38;;;;;;;3.97;1.70;;;18.80;99.90;;;;;;5042720;28;20053;-61
2022/05/13 11:33:27;;;;;;;3.33;1.67;;;18.70;99.90;;;;;;5023668;28;20447;-60
2022/05/13 11:36:09;;;;;;;3.22;1.33;;;18.80;99.90;;;;;;5038821;28;20479;-62
2022/05/13 11:38:57;;;;;;;5.07;1.48;;;18.80;99.90;;;;;;5041028;28;20492;-61
2022/05/13 11:41:24;;;;;;;3.55;1.73;;;18.80;99.90;;;;;;5041417;28;20132;-61
2022/05/13 11:44:10;;;;;;;3.30;1.92;;;18.80;99.90;;;;;;5040512;28;20404;-60
2022/05/13 11:47:01;;;;;;;3.78;1.67;;;18.80;99.80;;;;;;5023589;28;20167;-62
2022/05/13 11:49:32;;;;;;;2.25;1.25;;;19.00;99.80;;;;;;5021883;28;20464;-61
2022/05/13 11:52:11;;;;;;;1.75;0.77;;;19.20;99.90;;;;;;5023892;28;20057;-62
2022/05/13 11:54:41;;;;;;;2.20;0.93;;;19.60;99.30;;;;;;5040368;28;20045;-62
2022/05/13 11:57:41;;;;;;;2.67;1.00;;;19.80;98.60;;;;;;5019246;28;20480;-62
2022/05/13 12:00:24;;;;;;;2.72;1.17;;;19.70;98.40;;;;;;5017224;28;20685;-61
2022/05/13 12:02:51;;;;;;;2.75;1.33;;;19.70;97.80;;;;;;5043032;28;20212;-62
2022/05/13 12:05:18;;;;;;;2.35;1.20;;;19.60;97.70;;;;;;5042688;28;20124;-62
2022/05/13 12:07:57;;;;;;;2.72;1.05;;;19.60;97.80;;;;;;5043264;28;20498;-62
2022/05/13 12:10:33;;;;;;;2.95;1.30;;;19.80;98.00;;;;;;5042416;28;20466;-61
2022/05/13 12:13:08;;;;;;;3.95;1.40;;;19.90;97.60;;;;;;5024993;28;20076;-61
2022/05/13 12:15:43;;;;;;;3.40;1.13;;;19.90;97.00;;;;;;5025189;28;20095;-62
2022/05/13 12:18:16;;;;;;;3.65;1.20;;;20.10;97.20;;;;;;5042505;28;20045;-62
2022/05/13 12:20:46;;;;;;;1.40;0.93;;;20.30;97.20;;;;;;5024658;28;20048;-61
2022/05/13 12:23:17;;;;;;;3.13;1.25;;;20.60;97.40;;;;;;5042483;28;20041;-62
2022/05/13 12:25:51;;;;;;;2.90;1.30;;;20.60;96.30;;;;;;5043187;28;20446;-62
2022/05/13 12:28:17;;;;;;;1.98;0.95;;;20.40;96.10;;;;;;5042593;28;20532;-62
2022/05/13 12:30:46;;;;;;;2.58;1.40;;;20.20;96.70;;;;;;5042300;28;20135;-61
2022/05/13 12:33:19;;;;;;;1.83;1.02;;;20.20;96.50;;;;;;5024369;28;20126;-61
2022/05/13 12:39:07;;;;;;;2.47;1.10;;;20.60;95.90;;;;;;5042591;28;20136;-61
2022/05/13 12:41:43;;;;;;;1.77;0.90;;;21.00;95.80;;;;;;5043113;28;20076;-61
2022/05/13 12:44:13;;;;;;;2.92;1.33;;;21.60;94.90;;;;;;5042044;28;20443;-61
2022/05/13 12:46:51;;;;;;;2.83;1.20;;;21.70;94.30;;;;;;5042948;28;20057;-61
2022/05/13 12:49:25;;;;;;;1.50;0.90;;;21.80;95.00;;;;;;5023176;28;20075;-62
2022/05/13 12:51:52;;;;;;;1.90;1.08;;;22.20;94.50;;;;;;5024756;28;20128;-61
2022/05/13 12:54:21;;;;;;;1.60;0.90;;;22.40;93.80;;;;;;5042296;28;20088;-62
2022/05/13 12:56:51;;;;;;;1.77;0.95;;;22.60;93.30;;;;;;5024933;28;20059;-61
2022/05/13 12:59:23;;;;;;;1.80;0.80;;;22.60;92.30;;;;;;5041636;28;20118;-62
2022/05/13 13:01:51;;;;;;;2.00;0.90;;;22.70;92.50;;;;;;5021290;28;20497;-62
2022/05/13 13:04:22;;;;;;;2.50;1.42;;;22.70;91.00;;;;;;5000481;28;20315;-61
2022/05/13 13:06:49;;;;;;;2.55;1.20;;;22.60;91.60;;;;;;5002659;28;20049;-63
2022/05/13 13:09:28;;;;;;;1.13;0.80;;;22.90;91.20;;;;;;5007182;28;20120;-62
2022/05/13 13:12:06;;;;;;;2.05;1.13;;;23.30;90.60;;;;;;5022839;28;20124;-62
2022/05/13 13:15:10;;;;;;;2.40;0.90;;;23.50;90.90;;;;;;5020237;28;20045;-62
2022/05/13 13:17:55;;;;;;;3.60;1.52;;;23.50;89.80;;;;;;5022120;28;20136;-61
2022/05/13 13:20:24;;;;;;;2.38;1.00;;;23.20;89.40;;;;;;5021326;28;20172;-62
2022/05/13 13:22:53;;;;;;;2.78;1.10;;;23.00;88.30;;;;;;5022241;28;20416;-61
2022/05/13 13:25:30;;;;;;;2.53;1.15;;;22.90;90.00;;;;;;5020579;28;20569;-62
2022/05/13 13:27:59;;;;;;;1.73;0.82;;;23.20;89.40;;;;;;5021332;28;20092;-61
2022/05/13 13:30:26;;;;;;;4.63;1.20;;;23.70;90.00;;;;;;5020647;28;20141;-61
2022/05/13 13:32:53;;;;;;;0.60;0.60;;;24.00;88.40;;;;;;5020137;28;20049;-61
2022/05/13 13:35:33;;;;;;;2.83;1.05;;;24.30;85.60;;;;;;5020146;28;20512;-61
2022/05/13 13:38:01;;;;;;;1.58;0.88;;;24.30;83.30;;;;;;5022449;28;20597;-61